createdAt,value
2022-12-09T00:02:53.673Z,100048.72
2022-12-09T00:05:56.317Z,100060.47
2022-12-09T00:08:59.080Z,100067.72
2022-12-09T00:12:01.708Z,100059.00
2022-12-09T00:15:04.561Z,100071.16
2022-12-09T00:18:07.168Z,100065.25
2022-12-09T00:21:25.250Z,100067.66
2022-12-09T00:24:27.661Z,100070.34
2022-12-09T00:27:30.213Z,100072.03
2022-12-09T00:30:34.222Z,100076.19
2022-12-09T00:33:36.677Z,100075.22
2022-12-09T00:36:39.473Z,100081.97
2022-12-09T00:39:41.906Z,100079.53
2022-12-09T00:42:44.401Z,100078.44
2022-12-09T00:45:46.833Z,100064.84
2022-12-09T00:48:50.431Z,100064.25
2022-12-09T00:51:54.219Z,100061.53
2022-12-09T00:54:57.874Z,100052.34
2022-12-09T00:58:01.569Z,100059.41
2022-12-09T01:01:04.710Z,100056.84
2022-12-09T01:04:10.647Z,100063.50
2022-12-09T01:07:13.372Z,100062.09
2022-12-09T01:10:16.072Z,100067.09
2022-12-09T01:13:18.576Z,100076.31
2022-12-09T01:16:24.917Z,100079.84
2022-12-09T01:19:27.572Z,100085.69
2022-12-09T01:22:30.116Z,100079.41
2022-12-09T01:25:32.897Z,100066.16
2022-12-09T01:28:37.774Z,100071.34
2022-12-09T01:31:40.785Z,100065.47
2022-12-09T01:34:44.029Z,100052.72
2022-12-09T01:37:46.762Z,100054.38
2022-12-09T01:40:49.399Z,100050.31
2022-12-09T01:44:07.514Z,100056.38
2022-12-09T01:47:22.109Z,100057.22
2022-12-09T01:50:27.195Z,100066.44
2022-12-09T01:53:34.624Z,100070.09
2022-12-09T01:56:37.603Z,100066.53
2022-12-09T01:59:43.615Z,100064.16
2022-12-09T02:02:48.888Z,100067.78
2022-12-09T02:05:54.608Z,100071.81
2022-12-09T02:08:58.830Z,100075.28
2022-12-09T02:12:19.943Z,100086.22
2022-12-09T02:15:29.017Z,100077.75
2022-12-09T02:18:49.662Z,100075.31
2022-12-09T02:22:00.307Z,100077.94
2022-12-09T02:25:14.398Z,100079.59
2022-12-09T02:28:24.601Z,100075.38
2022-12-09T02:32:05.404Z,100071.81
2022-12-09T02:35:35.983Z,100073.66
2022-12-09T02:38:42.626Z,100074.06
2022-12-09T02:41:48.389Z,100078.53
2022-12-09T02:44:52.058Z,100075.44
2022-12-09T02:48:01.283Z,100060.72
2022-12-09T02:51:08.068Z,100065.91
2022-12-09T02:54:17.751Z,100071.88
2022-12-09T02:57:26.267Z,100080.47
2022-12-09T03:00:29.519Z,100081.19
2022-12-09T03:03:34.005Z,100074.06
2022-12-09T03:06:45.577Z,100073.16
2022-12-09T03:09:59.069Z,100069.78
2022-12-09T03:13:10.209Z,100072.31
2022-12-09T03:16:25.149Z,100078.47
2022-12-09T03:19:34.329Z,100075.97
2022-12-09T03:22:39.339Z,100067.06
2022-12-09T03:25:49.015Z,100070.59
2022-12-09T03:28:53.273Z,100068.22
2022-12-09T03:31:58.823Z,100082.50
2022-12-09T03:35:08.566Z,100094.72
2022-12-09T03:38:14.724Z,100101.47
2022-12-09T03:41:30.401Z,100103.31
2022-12-09T03:44:52.927Z,100104.00
2022-12-09T03:47:56.295Z,100112.66
2022-12-09T03:51:05.844Z,100112.59
2022-12-09T03:54:20.820Z,100100.09
2022-12-09T03:57:24.452Z,100094.19
2022-12-09T04:00:29.397Z,100085.69
2022-12-09T04:03:34.707Z,100085.94
2022-12-09T04:06:37.351Z,100076.00
2022-12-09T04:09:39.927Z,100082.25
2022-12-09T04:12:42.440Z,100087.34
2022-12-09T04:15:45.499Z,100071.94
2022-12-09T04:18:48.311Z,100082.34
2022-12-09T04:21:50.792Z,100081.25
2022-12-09T04:24:53.578Z,100079.13
2022-12-09T04:27:57.146Z,100083.66
2022-12-09T04:31:00.249Z,100089.06
2022-12-09T04:34:08.987Z,100085.75
2022-12-09T04:37:13.242Z,100072.38
2022-12-09T04:40:22.772Z,100081.28
2022-12-09T04:43:26.479Z,100077.22
2022-12-09T04:46:29.169Z,100078.16
2022-12-09T04:49:31.881Z,100080.75
2022-12-09T04:52:35.389Z,100088.38
2022-12-09T04:55:37.797Z,100091.81
2022-12-09T04:58:40.614Z,100099.28
2022-12-09T05:01:43.117Z,100100.75
2022-12-09T05:04:47.070Z,100096.38
2022-12-09T05:07:50.211Z,100097.72
2022-12-09T05:10:53.247Z,100107.00
2022-12-09T05:13:56.012Z,100104.16
2022-12-09T05:16:58.842Z,100107.50
2022-12-09T05:20:01.548Z,100103.16
2022-12-09T05:23:09.135Z,100107.19
2022-12-09T05:26:15.242Z,100101.84
2022-12-09T05:29:22.775Z,100099.16
2022-12-09T05:32:29.274Z,100084.84
2022-12-09T05:35:32.854Z,100087.63
2022-12-09T05:38:37.045Z,100101.97
2022-12-09T05:41:39.653Z,100109.97
2022-12-09T05:44:42.299Z,100109.91
2022-12-09T05:47:45.037Z,100113.34
2022-12-09T05:50:57.679Z,100126.06
2022-12-09T05:54:02.768Z,100120.25
2022-12-09T05:57:05.418Z,100116.84
2022-12-09T06:00:09.666Z,100127.25
2022-12-09T06:03:15.490Z,100120.53
2022-12-09T06:06:21.808Z,100122.44
2022-12-09T06:09:24.929Z,100113.94
2022-12-09T06:12:28.040Z,100108.13
2022-12-09T06:15:33.505Z,100116.63
2022-12-09T06:18:37.194Z,100116.50
2022-12-09T06:21:41.654Z,100110.69
2022-12-09T06:24:44.469Z,100120.09
2022-12-09T06:27:47.391Z,100114.00
2022-12-09T06:30:50.620Z,100111.66
2022-12-09T06:33:55.461Z,100124.22
2022-12-09T06:36:59.578Z,100122.72
2022-12-09T06:40:02.590Z,100122.88
2022-12-09T06:43:05.547Z,100125.63
2022-12-09T06:46:20.384Z,100132.59
2022-12-09T06:49:24.032Z,100119.44
2022-12-09T06:52:27.038Z,100123.38
2022-12-09T06:55:29.911Z,100120.88
2022-12-09T06:58:33.419Z,100114.34
2022-12-09T07:01:37.701Z,100109.53
2022-12-09T07:04:40.768Z,100115.50
2022-12-09T07:07:44.328Z,100122.91
2022-12-09T07:10:56.952Z,100128.00
2022-12-09T07:13:59.902Z,100124.56
2022-12-09T07:17:03.022Z,100123.69
2022-12-09T07:20:07.585Z,100114.22
2022-12-09T07:23:11.378Z,100125.09
2022-12-09T07:26:18.501Z,100124.81
2022-12-09T07:29:21.569Z,100121.47
2022-12-09T07:32:24.332Z,100113.69
2022-12-09T07:35:27.077Z,100111.03
2022-12-09T07:38:30.398Z,100107.16
2022-12-09T07:41:33.211Z,100096.81
2022-12-09T07:44:36.435Z,100089.84
2022-12-09T07:47:39.298Z,100088.94
2022-12-09T07:50:42.145Z,100092.03
2022-12-09T07:53:45.987Z,100092.09
2022-12-09T07:56:48.770Z,100091.81
2022-12-09T07:59:53.453Z,100093.81
2022-12-09T08:02:56.214Z,100086.31
2022-12-09T08:05:59.318Z,100090.03
2022-12-09T08:09:04.523Z,100081.50
2022-12-09T08:12:08.521Z,100089.78
2022-12-09T08:15:11.664Z,100090.59
2022-12-09T08:18:14.950Z,100086.31
2022-12-09T08:21:24.919Z,100090.22
2022-12-09T08:24:27.593Z,100086.38
2022-12-09T08:27:30.408Z,100075.25
2022-12-09T08:30:33.452Z,100082.56
2022-12-09T08:33:37.344Z,100082.28
2022-12-09T08:36:40.092Z,100070.09
2022-12-09T08:39:43.181Z,100062.06
2022-12-09T08:42:45.896Z,100066.94
2022-12-09T08:45:48.591Z,100078.16
2022-12-09T08:48:51.462Z,100070.94
2022-12-09T08:51:54.707Z,100066.09
2022-12-09T08:54:57.434Z,100070.03
2022-12-09T08:58:00.081Z,100068.50
2022-12-09T09:01:03.157Z,100057.63
2022-12-09T09:04:10.141Z,100058.38
2022-12-09T09:07:13.950Z,100060.25
2022-12-09T09:10:17.814Z,100070.00
2022-12-09T09:13:20.728Z,100072.19
2022-12-09T09:16:25.468Z,100053.56
2022-12-09T09:19:28.666Z,100060.59
2022-12-09T09:22:31.876Z,100057.25
2022-12-09T09:25:34.658Z,100051.09
2022-12-09T09:28:37.389Z,100050.88
2022-12-09T09:31:40.987Z,100046.38
2022-12-09T09:34:45.965Z,100045.63
2022-12-09T09:37:48.922Z,100032.19
2022-12-09T09:40:52.674Z,100035.56
2022-12-09T09:43:58.276Z,100035.72
2022-12-09T09:47:03.073Z,100029.47
2022-12-09T09:50:32.021Z,100028.75
2022-12-09T09:53:36.372Z,100017.03
2022-12-09T09:56:45.978Z,99999.41
2022-12-09T10:00:20.903Z,99994.06
2022-12-09T10:03:37.297Z,99987.09
2022-12-09T10:07:07.181Z,99987.94
2022-12-09T10:10:18.054Z,99988.59
2022-12-09T10:13:39.696Z,99975.44
2022-12-09T10:17:04.537Z,99966.75
2022-12-09T10:20:14.250Z,99960.66
2022-12-09T10:23:18.223Z,99962.50
2022-12-09T10:26:31.107Z,99964.00
2022-12-09T10:29:41.500Z,99954.75
2022-12-09T10:32:45.067Z,99946.22
2022-12-09T10:35:48.614Z,99929.91
2022-12-09T10:38:51.688Z,99932.25
2022-12-09T10:42:16.276Z,99924.34
2022-12-09T10:45:19.005Z,99921.66
2022-12-09T10:49:04.049Z,99918.03
2022-12-09T10:52:07.103Z,99910.94
2022-12-09T10:55:31.404Z,99914.38
2022-12-09T10:58:34.616Z,99900.94
2022-12-09T11:01:50.629Z,99898.69
2022-12-09T11:04:53.852Z,99892.31
2022-12-09T11:07:58.925Z,99884.88
2022-12-09T11:11:02.754Z,99885.63
2022-12-09T11:14:24.790Z,99877.44
2022-12-09T11:17:30.838Z,99868.50
2022-12-09T11:20:42.267Z,99865.66
2022-12-09T11:24:02.437Z,99870.75
2022-12-09T11:27:25.130Z,99874.28
2022-12-09T11:30:31.294Z,99873.03
2022-12-09T11:33:41.731Z,99871.94
2022-12-09T11:36:51.369Z,99867.63
2022-12-09T11:39:56.286Z,99862.72
2022-12-09T11:42:59.047Z,99865.03
2022-12-09T11:46:30.158Z,99854.03
2022-12-09T11:49:36.775Z,99854.41
2022-12-09T11:52:39.463Z,99854.63
2022-12-09T11:55:44.270Z,99849.53
2022-12-09T11:59:00.105Z,99853.44
2022-12-09T12:02:17.799Z,99849.16
2022-12-09T12:05:23.456Z,99840.75
2022-12-09T12:08:47.733Z,99838.13
2022-12-09T12:12:10.664Z,99833.31
2022-12-09T12:15:21.547Z,99817.03
2022-12-09T12:18:25.984Z,99810.47
2022-12-09T12:21:44.491Z,99803.50
2022-12-09T12:25:18.302Z,99796.22
2022-12-09T12:28:27.850Z,99780.16
2022-12-09T12:31:55.151Z,99771.63
2022-12-09T12:35:16.080Z,99766.91
2022-12-09T12:38:25.092Z,99751.69
2022-12-09T12:41:45.967Z,99760.31
2022-12-09T12:45:43.170Z,99766.31
2022-12-09T12:49:24.427Z,99774.03
2022-12-09T12:53:09.020Z,99769.34
2022-12-09T12:56:25.362Z,99764.22
2022-12-09T12:59:39.826Z,99746.25
2022-12-09T13:03:09.531Z,99747.25
2022-12-09T13:06:16.175Z,99750.16
2022-12-09T13:09:59.534Z,99741.38
2022-12-09T13:13:04.976Z,99726.78
2022-12-09T13:16:29.896Z,99723.59
2022-12-09T13:19:40.743Z,99728.34
2022-12-09T13:23:03.044Z,99720.13
2022-12-09T13:26:42.746Z,99721.00
2022-12-09T13:29:59.748Z,99699.69
2022-12-09T13:33:17.342Z,99693.72
2022-12-09T13:36:41.993Z,99697.97
2022-12-09T13:39:50.384Z,99690.19
2022-12-09T13:43:05.012Z,99695.19
2022-12-09T13:46:07.593Z,99683.22
2022-12-09T13:49:24.014Z,99682.50
2022-12-09T13:52:47.827Z,99664.38
2022-12-09T13:55:55.707Z,99663.47
2022-12-09T13:59:23.006Z,99660.94
2022-12-09T14:02:37.909Z,99650.69
2022-12-09T14:05:41.092Z,99654.09
2022-12-09T14:08:49.604Z,99649.81
2022-12-09T14:11:56.827Z,99652.25
2022-12-09T14:15:25.892Z,99655.22
2022-12-09T14:18:33.003Z,99654.84
2022-12-09T14:21:35.871Z,99638.50
2022-12-09T14:24:38.768Z,99628.78
2022-12-09T14:28:10.289Z,99608.44
2022-12-09T14:31:42.951Z,99606.00
2022-12-09T14:34:49.453Z,99606.53
2022-12-09T14:38:08.695Z,99597.25
2022-12-09T14:41:33.363Z,99589.50
2022-12-09T14:44:51.254Z,99588.38
2022-12-09T14:47:54.071Z,99589.72
2022-12-09T14:51:19.959Z,99585.25
2022-12-09T14:54:26.990Z,99587.44
2022-12-09T14:57:36.750Z,99575.31
2022-12-09T15:00:41.751Z,99569.41
2022-12-09T15:03:57.828Z,99558.88
2022-12-09T15:07:06.451Z,99553.94
2022-12-09T15:10:22.586Z,99549.59
2022-12-09T15:13:26.153Z,99553.69
2022-12-09T15:16:28.817Z,99550.38
2022-12-09T15:19:59.125Z,99556.69
2022-12-09T15:23:06.663Z,99549.09
2022-12-09T15:26:21.662Z,99530.75
2022-12-09T15:29:30.348Z,99529.09
2022-12-09T15:32:33.187Z,99529.66
2022-12-09T15:35:35.682Z,99514.97
2022-12-09T15:38:42.585Z,99517.47
2022-12-09T15:42:08.338Z,99513.25
2022-12-09T15:45:13.651Z,99497.94
2022-12-09T15:48:20.869Z,99498.00
2022-12-09T15:51:26.326Z,99491.69
2022-12-09T15:54:34.979Z,99484.00
2022-12-09T15:57:38.320Z,99485.53
2022-12-09T16:00:47.129Z,99483.75
2022-12-09T16:03:51.768Z,99473.84
2022-12-09T16:06:56.994Z,99470.03
2022-12-09T16:10:17.130Z,99465.25
2022-12-09T16:13:21.530Z,99461.63
2022-12-09T16:16:40.970Z,99470.25
2022-12-09T16:19:44.124Z,99462.47
2022-12-09T16:22:49.291Z,99462.41
2022-12-09T16:25:52.040Z,99458.75
2022-12-09T16:29:02.010Z,99453.47
2022-12-09T16:32:40.900Z,99444.53
2022-12-09T16:35:45.703Z,99438.34
2022-12-09T16:39:31.210Z,99434.03
2022-12-09T16:42:37.939Z,99421.97
2022-12-09T16:45:51.300Z,99414.75
2022-12-09T16:48:54.037Z,99409.75
2022-12-09T16:51:57.854Z,99414.44
2022-12-09T16:55:01.006Z,99408.03
2022-12-09T16:58:03.773Z,99398.91
2022-12-09T17:01:06.825Z,99401.31
2022-12-09T17:04:17.760Z,99404.81
2022-12-09T17:07:20.679Z,99398.06
2022-12-09T17:10:24.613Z,99400.63
2022-12-09T17:13:27.588Z,99392.91
2022-12-09T17:16:30.345Z,99389.56
2022-12-09T17:19:33.528Z,99392.75
2022-12-09T17:22:36.619Z,99384.66
2022-12-09T17:25:39.320Z,99383.22
2022-12-09T17:28:43.339Z,99371.81
2022-12-09T17:31:49.614Z,99369.16
2022-12-09T17:34:54.445Z,99363.28
2022-12-09T17:37:56.920Z,99344.84
2022-12-09T17:41:05.088Z,99346.59
2022-12-09T17:44:08.779Z,99350.06
2022-12-09T17:47:11.363Z,99344.41
2022-12-09T17:50:13.794Z,99339.84
2022-12-09T17:53:16.456Z,99325.44
2022-12-09T17:56:22.232Z,99320.91
2022-12-09T17:59:25.082Z,99319.41
2022-12-09T18:02:27.692Z,99312.44
2022-12-09T18:05:30.149Z,99303.63
2022-12-09T18:08:32.552Z,99301.59
2022-12-09T18:11:35.976Z,99290.16
2022-12-09T18:14:38.481Z,99288.31
2022-12-09T18:17:40.903Z,99288.09
2022-12-09T18:20:43.583Z,99278.97
2022-12-09T18:23:46.747Z,99276.25
2022-12-09T18:26:49.235Z,99269.38
2022-12-09T18:29:51.904Z,99268.53
2022-12-09T18:32:54.509Z,99260.25
2022-12-09T18:35:57.215Z,99259.28
2022-12-09T18:38:59.987Z,99260.75
2022-12-09T18:42:03.530Z,99248.38
2022-12-09T18:45:06.443Z,99241.38
2022-12-09T18:48:08.989Z,99231.56
2022-12-09T18:51:19.954Z,99239.88
2022-12-09T18:54:28.258Z,99232.13
2022-12-09T18:57:31.110Z,99225.66
2022-12-09T19:00:34.140Z,99221.44
2022-12-09T19:03:36.798Z,99221.34
2022-12-09T19:06:41.212Z,99226.09
2022-12-09T19:09:43.868Z,99218.38
2022-12-09T19:12:50.605Z,99217.78
2022-12-09T19:15:56.570Z,99218.59
2022-12-09T19:19:05.401Z,99207.66
2022-12-09T19:22:09.901Z,99203.38
2022-12-09T19:25:12.976Z,99210.50
2022-12-09T19:28:16.463Z,99206.16
2022-12-09T19:31:38.143Z,99211.91
2022-12-09T19:34:40.768Z,99203.94
2022-12-09T19:37:43.697Z,99201.78
2022-12-09T19:40:46.363Z,99205.88
2022-12-09T19:43:48.808Z,99197.72
2022-12-09T19:46:51.490Z,99193.66
2022-12-09T19:49:53.835Z,99188.34
2022-12-09T19:52:56.550Z,99189.47
2022-12-09T19:56:01.767Z,99192.53
2022-12-09T19:59:05.066Z,99189.03
2022-12-09T20:02:12.120Z,99183.56
2022-12-09T20:05:14.881Z,99169.59
2022-12-09T20:08:17.774Z,99177.34
2022-12-09T20:11:23.382Z,99170.88
2022-12-09T20:14:26.047Z,99179.84
2022-12-09T20:17:28.568Z,99176.00
2022-12-09T20:20:33.407Z,99174.94
2022-12-09T20:23:37.881Z,99170.06
2022-12-09T20:26:40.743Z,99174.38
2022-12-09T20:29:43.933Z,99163.91
2022-12-09T20:32:48.594Z,99158.09
2022-12-09T20:35:51.253Z,99160.25
2022-12-09T20:38:57.127Z,99172.88
2022-12-09T20:42:00.067Z,99153.81
2022-12-09T20:45:02.726Z,99154.38
2022-12-09T20:48:05.851Z,99158.59
2022-12-09T20:51:13.878Z,99162.56
2022-12-09T20:54:16.548Z,99156.06
2022-12-09T20:57:19.073Z,99153.66
2022-12-09T21:00:21.579Z,99158.75
2022-12-09T21:03:24.607Z,99162.22
2022-12-09T21:06:30.196Z,99152.25
2022-12-09T21:09:32.933Z,99156.81
2022-12-09T21:12:35.932Z,99147.63
2022-12-09T21:15:38.649Z,99146.97
2022-12-09T21:18:43.126Z,99144.84
2022-12-09T21:21:47.104Z,99147.81
2022-12-09T21:24:49.765Z,99136.63
2022-12-09T21:27:52.885Z,99128.66
2022-12-09T21:30:55.711Z,99130.75
2022-12-09T21:34:01.877Z,99117.88
2022-12-09T21:37:04.624Z,99106.25
2022-12-09T21:40:08.056Z,99112.78
2022-12-09T21:43:11.274Z,99100.94
2022-12-09T21:46:19.055Z,99099.25
2022-12-09T21:49:21.735Z,99087.22
2022-12-09T21:52:27.891Z,99091.47
2022-12-09T21:55:30.397Z,99085.75
2022-12-09T21:58:34.992Z,99087.44
2022-12-09T22:01:40.310Z,99074.34
2022-12-09T22:04:42.766Z,99075.25
2022-12-09T22:07:48.559Z,99071.94
2022-12-09T22:10:53.801Z,99075.97
2022-12-09T22:13:58.417Z,99068.22
2022-12-09T22:17:00.963Z,99072.78
2022-12-09T22:20:48.974Z,99063.53
2022-12-09T22:23:28.155Z,99064.13
2022-12-09T22:26:30.708Z,99055.22
2022-12-09T22:29:33.135Z,99066.50
2022-12-09T22:32:40.863Z,99071.41
2022-12-09T22:35:44.425Z,99059.63
2022-12-09T22:38:47.877Z,99055.59
2022-12-09T22:41:51.242Z,99055.22
2022-12-09T22:44:53.626Z,99045.88
2022-12-09T22:47:56.032Z,99046.22
2022-12-09T22:51:13.623Z,99046.03
2022-12-09T22:54:17.537Z,99043.56
2022-12-09T22:57:19.922Z,99030.97
2022-12-09T23:00:22.946Z,99017.41
2022-12-09T23:03:25.739Z,99003.97
2022-12-09T23:06:29.250Z,99013.47
2022-12-09T23:09:31.776Z,98998.13
2022-12-09T23:12:34.169Z,99013.53
2022-12-09T23:15:36.929Z,98999.50
2022-12-09T23:18:39.756Z,98999.38
2022-12-09T23:21:43.260Z,98991.13
2022-12-09T23:24:45.688Z,99005.81
2022-12-09T23:27:48.083Z,99005.94
2022-12-09T23:30:50.847Z,98998.59
2022-12-09T23:33:54.334Z,98985.47
2022-12-09T23:36:56.742Z,98989.00
2022-12-09T23:39:59.251Z,98994.53
2022-12-09T23:43:01.713Z,99001.06
2022-12-09T23:46:11.359Z,98996.66
2022-12-09T23:49:17.868Z,98983.41
2022-12-09T23:52:20.322Z,98972.50
2022-12-09T23:55:22.740Z,98978.91
2022-12-09T23:58:25.156Z,98975.44
